UAL132 PKMJ-PTPN
Flight info
| Callsign | UAL132 |
|---|---|
| Flight time | 2h 0m |
| Altitude | 34000 |
| Route | MAJ STEFF AXTEN |
| Aircraft | B738/M-SDE2E3FGHIRWXY/LB1 |
Departure
| Time | 2026-04-27 15:34 |
|---|---|
| Airport | Marshall Islands International Airport (PKMJ) |
Arrival
| Time | 2026-04-27 17:35 |
|---|---|
| Airport | Pohnpei International Airport (PTPN) |
| Time | Latitude | Longitude | Altitude | Speed | Heading |
|---|---|---|---|---|---|
| 2026-04-27 15:26 | 7.06845 | 171.28192 | 18 ft | 0 kts | 122° |
| 2026-04-27 15:32 | 7.06844 | 171.28194 | 18 ft | 1 kts | 122° |
| 2026-04-27 15:32 | 7.06807 | 171.28209 | 18 ft | 9 kts | 176° |
| 2026-04-27 15:33 | 7.06752 | 171.28197 | 18 ft | 7 kts | 223° |
| 2026-04-27 15:33 | 7.06741 | 171.28172 | 17 ft | 0 kts | 255° |
| 2026-04-27 15:33 | 7.06729 | 171.28130 | 17 ft | 29 kts | 256° |
| 2026-04-27 15:34 | 7.06620 | 171.27683 | 24 ft | 101 kts | 256° |
| 2026-04-27 15:34 | 7.06392 | 171.26779 | 18 ft | 163 kts | 255° |
| 2026-04-27 15:34 | 7.06082 | 171.25511 | 194 ft | 197 kts | 256° |
| 2026-04-27 15:34 | 7.05798 | 171.24185 | 940 ft | 196 kts | 253° |
| 2026-04-27 15:35 | 7.05115 | 171.22981 | 1430 ft | 207 kts | 226° |
| 2026-04-27 15:35 | 7.04254 | 171.21805 | 1928 ft | 215 kts | 236° |
| 2026-04-27 15:35 | 7.03582 | 171.20381 | 2220 ft | 234 kts | 249° |
| 2026-04-27 15:35 | 7.03175 | 171.18709 | 2505 ft | 256 kts | 261° |
| 2026-04-27 15:36 | 7.03083 | 171.16876 | 2909 ft | 271 kts | 272° |
| 2026-04-27 15:36 | 7.03324 | 171.14935 | 3323 ft | 285 kts | 283° |
| 2026-04-27 15:36 | 7.03816 | 171.12994 | 3954 ft | 289 kts | 287° |
| 2026-04-27 15:36 | 7.04371 | 171.11041 | 4570 ft | 294 kts | 284° |
| 2026-04-27 15:37 | 7.04628 | 171.08986 | 5277 ft | 295 kts | 269° |
| 2026-04-27 15:37 | 7.04525 | 171.06946 | 5955 ft | 297 kts | 265° |
| 2026-04-27 15:37 | 7.04360 | 171.04883 | 6620 ft | 298 kts | 266° |
| 2026-04-27 15:37 | 7.04251 | 171.02800 | 7246 ft | 301 kts | 268° |
| 2026-04-27 15:38 | 7.04204 | 171.00694 | 7843 ft | 305 kts | 269° |
| 2026-04-27 15:38 | 7.04192 | 170.98560 | 8415 ft | 309 kts | 270° |
| 2026-04-27 15:38 | 7.04191 | 170.96403 | 9042 ft | 310 kts | 270° |
| 2026-04-27 15:38 | 7.04188 | 170.94209 | 9712 ft | 311 kts | 270° |
| 2026-04-27 15:39 | 7.04183 | 170.92044 | 10234 ft | 316 kts | 270° |
| 2026-04-27 15:39 | 7.04176 | 170.89796 | 10507 ft | 331 kts | 270° |
| 2026-04-27 15:39 | 7.04170 | 170.87433 | 10842 ft | 343 kts | 270° |
| 2026-04-27 15:39 | 7.04163 | 170.84996 | 11213 ft | 353 kts | 270° |
| 2026-04-27 15:40 | 7.04151 | 170.82491 | 11545 ft | 364 kts | 270° |
| 2026-04-27 15:40 | 7.04135 | 170.79923 | 12034 ft | 369 kts | 270° |
| 2026-04-27 15:40 | 7.04118 | 170.77351 | 12664 ft | 370 kts | 270° |
| 2026-04-27 15:40 | 7.04106 | 170.74785 | 13314 ft | 370 kts | 270° |
| 2026-04-27 15:41 | 7.04095 | 170.72183 | 13905 ft | 372 kts | 270° |
| 2026-04-27 15:41 | 7.04086 | 170.69589 | 14493 ft | 374 kts | 270° |
| 2026-04-27 15:41 | 7.04076 | 170.66934 | 15028 ft | 379 kts | 270° |
| 2026-04-27 15:41 | 7.04067 | 170.64288 | 15521 ft | 383 kts | 270° |
| 2026-04-27 15:42 | 7.04056 | 170.61624 | 16143 ft | 383 kts | 269° |
| 2026-04-27 15:42 | 7.04044 | 170.58919 | 16662 ft | 386 kts | 269° |
| 2026-04-27 15:42 | 7.04033 | 170.56229 | 17188 ft | 389 kts | 269° |
| 2026-04-27 15:42 | 7.04021 | 170.53513 | 17675 ft | 392 kts | 269° |
| 2026-04-27 15:43 | 7.04008 | 170.50769 | 18160 ft | 395 kts | 269° |
| 2026-04-27 15:43 | 7.03994 | 170.47971 | 18595 ft | 398 kts | 269° |
| 2026-04-27 15:43 | 7.03980 | 170.45219 | 19127 ft | 399 kts | 269° |
| 2026-04-27 15:43 | 7.03967 | 170.42412 | 19592 ft | 401 kts | 269° |
| 2026-04-27 15:44 | 7.03953 | 170.39583 | 19998 ft | 405 kts | 269° |
| 2026-04-27 15:44 | 7.03938 | 170.36751 | 20443 ft | 407 kts | 269° |
| 2026-04-27 15:44 | 7.03923 | 170.33881 | 20803 ft | 412 kts | 269° |
| 2026-04-27 15:44 | 7.03909 | 170.31014 | 21255 ft | 413 kts | 269° |
| 2026-04-27 15:45 | 7.03893 | 170.28136 | 21693 ft | 414 kts | 269° |
| 2026-04-27 15:45 | 7.03877 | 170.25246 | 22052 ft | 417 kts | 269° |
| 2026-04-27 15:45 | 7.03859 | 170.22316 | 22473 ft | 419 kts | 269° |
| 2026-04-27 15:45 | 7.03841 | 170.19385 | 22861 ft | 422 kts | 269° |
| 2026-04-27 15:46 | 7.03823 | 170.16422 | 23261 ft | 424 kts | 269° |
| 2026-04-27 15:46 | 7.03807 | 170.13466 | 23643 ft | 426 kts | 269° |
| 2026-04-27 15:46 | 7.03790 | 170.10469 | 24007 ft | 429 kts | 269° |
| 2026-04-27 15:46 | 7.03773 | 170.07455 | 24370 ft | 432 kts | 269° |
| 2026-04-27 15:47 | 7.03755 | 170.04439 | 24729 ft | 434 kts | 269° |
| 2026-04-27 15:47 | 7.03738 | 170.01381 | 25078 ft | 437 kts | 269° |
| 2026-04-27 15:47 | 7.03720 | 169.98347 | 25446 ft | 438 kts | 269° |
| 2026-04-27 15:47 | 7.03702 | 169.95244 | 25760 ft | 442 kts | 269° |
| 2026-04-27 15:48 | 7.03684 | 169.92157 | 26121 ft | 443 kts | 269° |
| 2026-04-27 15:48 | 7.03666 | 169.89067 | 26418 ft | 446 kts | 269° |
| 2026-04-27 15:48 | 7.03647 | 169.85956 | 26749 ft | 448 kts | 269° |
| 2026-04-27 15:49 | 7.03610 | 169.79663 | 27403 ft | 453 kts | 268° |
| 2026-04-27 15:49 | 7.03590 | 169.76465 | 27696 ft | 455 kts | 269° |
| 2026-04-27 15:49 | 7.03570 | 169.73282 | 28002 ft | 457 kts | 269° |
| 2026-04-27 15:49 | 7.03551 | 169.70113 | 28314 ft | 459 kts | 269° |
| 2026-04-27 15:50 | 7.03532 | 169.66907 | 28596 ft | 462 kts | 269° |
| 2026-04-27 15:50 | 7.03512 | 169.63652 | 28890 ft | 464 kts | 269° |
| 2026-04-27 15:50 | 7.03492 | 169.60442 | 29189 ft | 466 kts | 269° |
| 2026-04-27 15:50 | 7.03472 | 169.57156 | 29526 ft | 466 kts | 269° |
| 2026-04-27 15:51 | 7.03452 | 169.53932 | 30012 ft | 463 kts | 269° |
| 2026-04-27 15:51 | 7.03433 | 169.50687 | 30419 ft | 462 kts | 269° |
| 2026-04-27 15:51 | 7.03416 | 169.47463 | 30782 ft | 462 kts | 269° |
| 2026-04-27 15:51 | 7.03398 | 169.44247 | 31070 ft | 463 kts | 269° |
| 2026-04-27 15:52 | 7.03377 | 169.41013 | 31324 ft | 465 kts | 269° |
| 2026-04-27 15:52 | 7.03358 | 169.37773 | 31734 ft | 463 kts | 268° |
| 2026-04-27 15:52 | 7.03337 | 169.34570 | 32227 ft | 458 kts | 268° |
| 2026-04-27 15:52 | 7.03315 | 169.31364 | 32769 ft | 453 kts | 268° |
| 2026-04-27 15:53 | 7.03293 | 169.28236 | 33061 ft | 454 kts | 268° |
| 2026-04-27 15:53 | 7.03268 | 169.25011 | 33290 ft | 456 kts | 268° |
| 2026-04-27 15:53 | 7.03245 | 169.21874 | 33611 ft | 455 kts | 268° |
| 2026-04-27 15:53 | 7.03222 | 169.18689 | 33830 ft | 456 kts | 268° |
| 2026-04-27 15:54 | 7.03199 | 169.15512 | 33823 ft | 457 kts | 268° |
| 2026-04-27 15:54 | 7.03153 | 169.09151 | 33823 ft | 453 kts | 268° |
| 2026-04-27 15:55 | 7.03103 | 169.02806 | 33824 ft | 455 kts | 268° |
| 2026-04-27 15:55 | 7.03054 | 168.96422 | 33823 ft | 454 kts | 268° |
| 2026-04-27 15:56 | 7.03004 | 168.90111 | 33824 ft | 454 kts | 268° |
| 2026-04-27 15:56 | 7.02953 | 168.83758 | 33823 ft | 453 kts | 268° |
| 2026-04-27 15:57 | 7.02901 | 168.77454 | 33824 ft | 453 kts | 268° |
| 2026-04-27 15:57 | 7.02847 | 168.71107 | 33834 ft | 454 kts | 268° |
| 2026-04-27 15:58 | 7.02793 | 168.64780 | 33843 ft | 454 kts | 268° |
| 2026-04-27 15:58 | 7.02739 | 168.58431 | 33843 ft | 454 kts | 268° |
| 2026-04-27 15:59 | 7.02682 | 168.52090 | 33846 ft | 454 kts | 268° |
| 2026-04-27 15:59 | 7.02624 | 168.45726 | 33844 ft | 454 kts | 268° |
| 2026-04-27 16:00 | 7.02562 | 168.39409 | 33845 ft | 452 kts | 268° |
| 2026-04-27 16:00 | 7.02504 | 168.33086 | 33843 ft | 454 kts | 268° |
| 2026-04-27 16:01 | 7.02442 | 168.26753 | 33843 ft | 453 kts | 268° |
| 2026-04-27 16:01 | 7.02382 | 168.20436 | 33843 ft | 454 kts | 268° |
| 2026-04-27 16:02 | 7.02320 | 168.14067 | 33843 ft | 454 kts | 268° |
| 2026-04-27 16:02 | 7.02256 | 168.07736 | 33842 ft | 454 kts | 268° |
| 2026-04-27 16:03 | 7.02194 | 168.01392 | 33839 ft | 454 kts | 268° |
| 2026-04-27 16:03 | 7.02134 | 167.95038 | 33830 ft | 453 kts | 268° |
| 2026-04-27 16:04 | 7.02075 | 167.88724 | 33822 ft | 452 kts | 268° |
| 2026-04-27 16:04 | 7.02014 | 167.82394 | 33822 ft | 453 kts | 268° |
| 2026-04-27 16:05 | 7.01950 | 167.76103 | 33823 ft | 454 kts | 268° |
| 2026-04-27 16:05 | 7.01884 | 167.69739 | 33822 ft | 454 kts | 268° |
| 2026-04-27 16:06 | 7.01817 | 167.63432 | 33823 ft | 453 kts | 268° |
| 2026-04-27 16:06 | 7.01744 | 167.57097 | 33823 ft | 454 kts | 268° |
| 2026-04-27 16:07 | 7.01673 | 167.50763 | 33822 ft | 453 kts | 268° |
| 2026-04-27 16:07 | 7.01607 | 167.44438 | 33823 ft | 453 kts | 268° |
| 2026-04-27 16:08 | 7.01539 | 167.38084 | 33823 ft | 453 kts | 268° |
| 2026-04-27 16:08 | 7.01471 | 167.31772 | 33822 ft | 453 kts | 268° |
| 2026-04-27 16:09 | 7.01403 | 167.25447 | 33825 ft | 454 kts | 268° |
| 2026-04-27 16:09 | 7.01299 | 167.15945 | 33823 ft | 454 kts | 268° |
| 2026-04-27 16:10 | 7.01148 | 167.03322 | 33839 ft | 452 kts | 268° |
| 2026-04-27 16:11 | 7.01031 | 166.93839 | 33843 ft | 452 kts | 268° |
| 2026-04-27 16:12 | 7.00914 | 166.84383 | 33843 ft | 453 kts | 268° |
| 2026-04-27 16:13 | 7.00794 | 166.74893 | 33844 ft | 452 kts | 268° |
| 2026-04-27 16:13 | 7.00675 | 166.65433 | 33842 ft | 452 kts | 268° |
| 2026-04-27 16:14 | 7.00510 | 166.52786 | 33844 ft | 454 kts | 268° |
| 2026-04-27 16:15 | 7.00343 | 166.40096 | 33844 ft | 453 kts | 268° |
| 2026-04-27 16:16 | 7.00172 | 166.27469 | 33842 ft | 454 kts | 268° |
| 2026-04-27 16:17 | 7.00000 | 166.14793 | 33830 ft | 454 kts | 268° |
| 2026-04-27 16:18 | 6.99820 | 166.02148 | 33821 ft | 452 kts | 268° |
| 2026-04-27 16:19 | 6.99730 | 165.95834 | 33822 ft | 451 kts | 268° |
| 2026-04-27 16:20 | 6.99544 | 165.83235 | 33823 ft | 452 kts | 268° |
| 2026-04-27 16:21 | 6.99403 | 165.73715 | 33823 ft | 454 kts | 268° |
| 2026-04-27 16:22 | 6.99216 | 165.61112 | 33831 ft | 452 kts | 268° |
| 2026-04-27 16:22 | 6.99074 | 165.51625 | 33831 ft | 452 kts | 268° |
| 2026-04-27 16:23 | 6.98930 | 165.42160 | 33831 ft | 451 kts | 268° |
| 2026-04-27 16:24 | 6.98833 | 165.35852 | 33835 ft | 451 kts | 268° |
| 2026-04-27 16:25 | 6.98637 | 165.23248 | 33842 ft | 451 kts | 268° |
| 2026-04-27 16:26 | 6.98406 | 165.10654 | 33843 ft | 452 kts | 268° |
| 2026-04-27 16:27 | 6.98168 | 164.98030 | 33843 ft | 451 kts | 268° |
| 2026-04-27 16:28 | 6.97870 | 164.82329 | 33844 ft | 450 kts | 268° |
| 2026-04-27 16:29 | 6.97567 | 164.66556 | 33844 ft | 453 kts | 268° |
| 2026-04-27 16:30 | 6.97320 | 164.53958 | 33837 ft | 450 kts | 268° |
| 2026-04-27 16:31 | 6.97003 | 164.38196 | 33823 ft | 450 kts | 268° |
| 2026-04-27 16:32 | 6.96813 | 164.28778 | 33821 ft | 450 kts | 269° |
| 2026-04-27 16:33 | 6.96623 | 164.19350 | 33822 ft | 451 kts | 269° |
| 2026-04-27 16:33 | 6.96494 | 164.13048 | 33823 ft | 450 kts | 269° |
| 2026-04-27 16:34 | 6.96363 | 164.06749 | 33828 ft | 451 kts | 269° |
| 2026-04-27 16:34 | 6.96233 | 164.00485 | 33837 ft | 449 kts | 269° |
| 2026-04-27 16:35 | 6.96102 | 163.94206 | 33841 ft | 451 kts | 269° |
| 2026-04-27 16:36 | 6.95902 | 163.84721 | 33842 ft | 450 kts | 269° |
| 2026-04-27 16:36 | 6.95770 | 163.78456 | 33843 ft | 450 kts | 269° |
| 2026-04-27 16:37 | 6.95635 | 163.72160 | 33842 ft | 452 kts | 268° |
| 2026-04-27 16:37 | 6.95497 | 163.65849 | 33843 ft | 451 kts | 268° |
| 2026-04-27 16:38 | 6.95360 | 163.59555 | 33843 ft | 452 kts | 268° |
| 2026-04-27 16:38 | 6.95221 | 163.53255 | 33842 ft | 452 kts | 268° |
| 2026-04-27 16:39 | 6.95081 | 163.46938 | 33843 ft | 452 kts | 268° |
| 2026-04-27 16:39 | 6.94941 | 163.40636 | 33842 ft | 452 kts | 268° |
| 2026-04-27 16:40 | 6.94800 | 163.34290 | 33843 ft | 453 kts | 268° |
| 2026-04-27 16:40 | 6.94660 | 163.28014 | 33843 ft | 453 kts | 268° |
| 2026-04-27 16:41 | 6.94516 | 163.21648 | 33843 ft | 453 kts | 268° |
| 2026-04-27 16:41 | 6.94374 | 163.15349 | 33843 ft | 452 kts | 267° |
| 2026-04-27 16:42 | 6.94231 | 163.09045 | 33843 ft | 452 kts | 267° |
| 2026-04-27 16:42 | 6.94087 | 163.02743 | 33843 ft | 452 kts | 267° |
| 2026-04-27 16:43 | 6.93942 | 162.96413 | 33842 ft | 451 kts | 267° |
| 2026-04-27 16:43 | 6.93796 | 162.90105 | 33842 ft | 451 kts | 268° |
| 2026-04-27 16:44 | 6.93650 | 162.83821 | 33843 ft | 451 kts | 267° |
| 2026-04-27 16:44 | 6.93503 | 162.77522 | 33842 ft | 452 kts | 267° |
| 2026-04-27 16:45 | 6.93354 | 162.71199 | 33836 ft | 452 kts | 267° |
| 2026-04-27 16:45 | 6.93206 | 162.64897 | 33826 ft | 452 kts | 267° |
| 2026-04-27 16:46 | 6.93057 | 162.58601 | 33822 ft | 451 kts | 267° |
| 2026-04-27 16:46 | 6.92907 | 162.52318 | 33822 ft | 451 kts | 267° |
| 2026-04-27 16:47 | 6.92755 | 162.46007 | 33823 ft | 451 kts | 267° |
| 2026-04-27 16:47 | 6.92601 | 162.39673 | 33829 ft | 451 kts | 267° |
| 2026-04-27 16:48 | 6.92449 | 162.33391 | 33833 ft | 452 kts | 267° |
| 2026-04-27 16:48 | 6.92295 | 162.27057 | 33840 ft | 452 kts | 267° |
| 2026-04-27 16:49 | 6.92063 | 162.17636 | 33841 ft | 451 kts | 267° |
| 2026-04-27 16:49 | 6.91907 | 162.11324 | 33842 ft | 451 kts | 267° |
| 2026-04-27 16:50 | 6.91750 | 162.05029 | 33842 ft | 451 kts | 267° |
| 2026-04-27 16:50 | 6.91592 | 161.98712 | 33842 ft | 452 kts | 267° |
| 2026-04-27 16:51 | 6.91432 | 161.92369 | 33843 ft | 452 kts | 267° |
| 2026-04-27 16:51 | 6.91274 | 161.86079 | 33843 ft | 451 kts | 267° |
| 2026-04-27 16:52 | 6.91115 | 161.79791 | 33843 ft | 450 kts | 267° |
| 2026-04-27 16:52 | 6.90953 | 161.73498 | 33843 ft | 450 kts | 267° |
| 2026-04-27 16:53 | 6.90793 | 161.67244 | 33843 ft | 450 kts | 267° |
| 2026-04-27 16:53 | 6.90630 | 161.60950 | 33842 ft | 451 kts | 267° |
| 2026-04-27 16:54 | 6.90467 | 161.54660 | 33843 ft | 451 kts | 267° |
| 2026-04-27 16:54 | 6.90304 | 161.48381 | 33842 ft | 450 kts | 267° |
| 2026-04-27 16:55 | 6.90139 | 161.42091 | 33843 ft | 450 kts | 267° |
| 2026-04-27 16:55 | 6.89974 | 161.35818 | 33843 ft | 450 kts | 267° |
| 2026-04-27 16:56 | 6.89808 | 161.29523 | 33838 ft | 450 kts | 267° |
| 2026-04-27 16:56 | 6.89642 | 161.23268 | 33831 ft | 450 kts | 267° |
| 2026-04-27 16:57 | 6.89474 | 161.16971 | 33829 ft | 450 kts | 267° |
| 2026-04-27 16:57 | 6.89306 | 161.10677 | 33824 ft | 449 kts | 267° |
| 2026-04-27 16:58 | 6.89138 | 161.04450 | 33824 ft | 449 kts | 267° |
| 2026-04-27 16:58 | 6.88970 | 160.98143 | 33822 ft | 449 kts | 267° |
| 2026-04-27 16:59 | 6.88805 | 160.91925 | 33822 ft | 449 kts | 266° |
| 2026-04-27 16:59 | 6.88632 | 160.85638 | 33822 ft | 449 kts | 266° |
| 2026-04-27 17:00 | 6.88372 | 160.76213 | 33822 ft | 450 kts | 267° |
| 2026-04-27 17:01 | 6.88202 | 160.69957 | 33822 ft | 449 kts | 267° |
| 2026-04-27 17:01 | 6.88030 | 160.63681 | 33822 ft | 450 kts | 267° |
| 2026-04-27 17:02 | 6.87857 | 160.57433 | 33823 ft | 450 kts | 267° |
| 2026-04-27 17:02 | 6.87678 | 160.51121 | 33828 ft | 450 kts | 267° |
| 2026-04-27 17:03 | 6.87496 | 160.44850 | 33832 ft | 451 kts | 267° |
| 2026-04-27 17:03 | 6.87315 | 160.38562 | 33830 ft | 450 kts | 267° |
| 2026-04-27 17:04 | 6.87134 | 160.32266 | 33829 ft | 450 kts | 267° |
| 2026-04-27 17:04 | 6.86953 | 160.25987 | 33833 ft | 450 kts | 267° |
| 2026-04-27 17:05 | 6.86773 | 160.19727 | 33837 ft | 451 kts | 267° |
| 2026-04-27 17:05 | 6.86596 | 160.13521 | 33601 ft | 433 kts | 267° |
| 2026-04-27 17:05 | 6.86511 | 160.10522 | 33254 ft | 426 kts | 266° |
| 2026-04-27 17:06 | 6.86426 | 160.07577 | 32827 ft | 421 kts | 266° |
| 2026-04-27 17:06 | 6.86342 | 160.04665 | 32391 ft | 416 kts | 267° |
| 2026-04-27 17:06 | 6.86257 | 160.01761 | 31943 ft | 413 kts | 267° |
| 2026-04-27 17:06 | 6.86172 | 159.98892 | 31489 ft | 410 kts | 267° |
| 2026-04-27 17:07 | 6.86088 | 159.96075 | 31032 ft | 407 kts | 268° |
| 2026-04-27 17:07 | 6.86004 | 159.93233 | 30575 ft | 404 kts | 268° |
| 2026-04-27 17:07 | 6.85921 | 159.90445 | 30131 ft | 401 kts | 268° |
| 2026-04-27 17:07 | 6.85839 | 159.87669 | 29776 ft | 395 kts | 268° |
| 2026-04-27 17:08 | 6.85757 | 159.84901 | 29773 ft | 396 kts | 268° |
| 2026-04-27 17:08 | 6.85591 | 159.79292 | 29774 ft | 410 kts | 268° |
| 2026-04-27 17:09 | 6.85419 | 159.73532 | 29763 ft | 409 kts | 269° |
| 2026-04-27 17:09 | 6.85250 | 159.67871 | 29762 ft | 408 kts | 269° |
| 2026-04-27 17:10 | 6.85079 | 159.62160 | 29760 ft | 408 kts | 269° |
| 2026-04-27 17:10 | 6.84993 | 159.59315 | 29557 ft | 411 kts | 269° |
| 2026-04-27 17:10 | 6.84906 | 159.56430 | 29296 ft | 407 kts | 269° |
| 2026-04-27 17:10 | 6.84821 | 159.53622 | 29043 ft | 403 kts | 269° |
| 2026-04-27 17:11 | 6.84737 | 159.50833 | 28787 ft | 400 kts | 269° |
| 2026-04-27 17:11 | 6.84568 | 159.45254 | 28288 ft | 400 kts | 269° |
| 2026-04-27 17:11 | 6.84482 | 159.42432 | 28038 ft | 399 kts | 269° |
| 2026-04-27 17:12 | 6.84314 | 159.36908 | 27544 ft | 394 kts | 269° |
| 2026-04-27 17:12 | 6.84230 | 159.34151 | 27297 ft | 392 kts | 269° |
| 2026-04-27 17:12 | 6.84146 | 159.31429 | 27052 ft | 391 kts | 269° |
| 2026-04-27 17:13 | 6.84063 | 159.28702 | 26805 ft | 389 kts | 269° |
| 2026-04-27 17:13 | 6.83980 | 159.26009 | 26559 ft | 387 kts | 269° |
| 2026-04-27 17:13 | 6.83897 | 159.23297 | 26313 ft | 386 kts | 270° |
| 2026-04-27 17:13 | 6.83814 | 159.20610 | 26064 ft | 385 kts | 269° |
| 2026-04-27 17:14 | 6.83732 | 159.17946 | 25822 ft | 383 kts | 269° |
| 2026-04-27 17:14 | 6.83650 | 159.15277 | 25578 ft | 381 kts | 269° |
| 2026-04-27 17:14 | 6.83568 | 159.12633 | 25334 ft | 380 kts | 269° |
| 2026-04-27 17:14 | 6.83486 | 159.09990 | 25091 ft | 380 kts | 269° |
| 2026-04-27 17:15 | 6.83403 | 159.07317 | 24845 ft | 377 kts | 269° |
| 2026-04-27 17:15 | 6.83322 | 159.04739 | 24495 ft | 373 kts | 269° |
| 2026-04-27 17:15 | 6.83240 | 159.02133 | 24071 ft | 370 kts | 269° |
| 2026-04-27 17:15 | 6.83160 | 158.99541 | 23640 ft | 368 kts | 269° |
| 2026-04-27 17:16 | 6.83080 | 158.96992 | 23217 ft | 366 kts | 269° |
| 2026-04-27 17:16 | 6.83002 | 158.94472 | 22796 ft | 363 kts | 269° |
| 2026-04-27 17:16 | 6.82922 | 158.91946 | 22371 ft | 361 kts | 269° |
| 2026-04-27 17:16 | 6.82843 | 158.89407 | 21955 ft | 359 kts | 269° |
| 2026-04-27 17:17 | 6.82764 | 158.86920 | 21540 ft | 357 kts | 269° |
| 2026-04-27 17:17 | 6.82686 | 158.84435 | 21124 ft | 356 kts | 269° |
| 2026-04-27 17:17 | 6.82608 | 158.81967 | 20711 ft | 354 kts | 269° |
| 2026-04-27 17:18 | 6.82983 | 158.77095 | 19823 ft | 351 kts | 288° |
| 2026-04-27 17:18 | 6.83965 | 158.74844 | 19387 ft | 348 kts | 302° |
| 2026-04-27 17:18 | 6.85380 | 158.72890 | 18967 ft | 345 kts | 311° |
| 2026-04-27 17:18 | 6.87037 | 158.71190 | 18559 ft | 342 kts | 321° |
| 2026-04-27 17:19 | 6.89006 | 158.69891 | 18141 ft | 339 kts | 336° |
| 2026-04-27 17:19 | 6.91215 | 158.69102 | 17736 ft | 336 kts | 347° |
| 2026-04-27 17:19 | 6.93518 | 158.68690 | 17325 ft | 333 kts | 355° |
| 2026-04-27 17:19 | 6.95826 | 158.68605 | 16919 ft | 331 kts | 2° |
| 2026-04-27 17:20 | 6.98120 | 158.68738 | 16517 ft | 329 kts | 6° |
| 2026-04-27 17:20 | 7.00396 | 158.68948 | 16117 ft | 327 kts | 7° |
| 2026-04-27 17:20 | 7.02687 | 158.69112 | 15712 ft | 326 kts | 1° |
| 2026-04-27 17:20 | 7.04885 | 158.68742 | 15324 ft | 325 kts | 337° |
| 2026-04-27 17:21 | 7.06726 | 158.67453 | 14944 ft | 324 kts | 311° |
| 2026-04-27 17:21 | 7.07900 | 158.65540 | 14578 ft | 322 kts | 290° |
| 2026-04-27 17:21 | 7.08396 | 158.63354 | 14169 ft | 321 kts | 276° |
| 2026-04-27 17:21 | 7.08608 | 158.61133 | 13744 ft | 321 kts | 275° |
| 2026-04-27 17:22 | 7.08820 | 158.58891 | 13337 ft | 320 kts | 275° |
| 2026-04-27 17:22 | 7.09037 | 158.56670 | 12938 ft | 319 kts | 275° |
| 2026-04-27 17:22 | 7.09255 | 158.54468 | 12542 ft | 318 kts | 275° |
| 2026-04-27 17:22 | 7.09474 | 158.52249 | 12144 ft | 318 kts | 275° |
| 2026-04-27 17:23 | 7.09690 | 158.50029 | 11746 ft | 317 kts | 275° |
| 2026-04-27 17:23 | 7.09901 | 158.47845 | 11353 ft | 316 kts | 275° |
| 2026-04-27 17:23 | 7.10115 | 158.45638 | 10956 ft | 315 kts | 276° |
| 2026-04-27 17:23 | 7.10324 | 158.43468 | 10566 ft | 314 kts | 276° |
| 2026-04-27 17:24 | 7.10535 | 158.41273 | 10170 ft | 313 kts | 276° |
| 2026-04-27 17:24 | 7.10746 | 158.39092 | 9783 ft | 312 kts | 276° |
| 2026-04-27 17:24 | 7.10951 | 158.36968 | 9536 ft | 306 kts | 276° |
| 2026-04-27 17:24 | 7.11158 | 158.34824 | 9124 ft | 307 kts | 276° |
| 2026-04-27 17:25 | 7.11363 | 158.32693 | 8739 ft | 306 kts | 276° |
| 2026-04-27 17:25 | 7.11568 | 158.30559 | 8359 ft | 305 kts | 276° |
| 2026-04-27 17:25 | 7.11771 | 158.28439 | 7979 ft | 305 kts | 276° |
| 2026-04-27 17:25 | 7.11903 | 158.26303 | 7606 ft | 303 kts | 273° |
| 2026-04-27 17:26 | 7.11944 | 158.24185 | 7220 ft | 303 kts | 271° |
| 2026-04-27 17:26 | 7.11942 | 158.22076 | 6843 ft | 303 kts | 271° |
| 2026-04-27 17:26 | 7.11932 | 158.19965 | 6471 ft | 302 kts | 271° |
| 2026-04-27 17:26 | 7.11928 | 158.17859 | 6098 ft | 301 kts | 271° |
| 2026-04-27 17:27 | 7.11931 | 158.15768 | 5729 ft | 300 kts | 271° |
| 2026-04-27 17:27 | 7.11938 | 158.13680 | 5350 ft | 298 kts | 272° |
| 2026-04-27 17:27 | 7.11947 | 158.11597 | 4996 ft | 294 kts | 272° |
| 2026-04-27 17:27 | 7.11956 | 158.09558 | 4645 ft | 290 kts | 272° |
| 2026-04-27 17:28 | 7.11965 | 158.07570 | 4561 ft | 279 kts | 272° |
| 2026-04-27 17:28 | 7.11843 | 158.05649 | 4371 ft | 278 kts | 260° |
| 2026-04-27 17:28 | 7.09987 | 158.02301 | 3622 ft | 277 kts | 221° |
| 2026-04-27 17:29 | 7.08471 | 158.01109 | 3292 ft | 268 kts | 206° |
| 2026-04-27 17:29 | 7.06778 | 158.00453 | 2982 ft | 255 kts | 185° |
| 2026-04-27 17:29 | 7.05060 | 158.00345 | 2776 ft | 239 kts | 171° |
| 2026-04-27 17:29 | 7.03474 | 158.00546 | 2720 ft | 222 kts | 160° |
| 2026-04-27 17:30 | 7.02093 | 158.01096 | 2645 ft | 203 kts | 142° |
| 2026-04-27 17:30 | 7.00114 | 158.02762 | 2530 ft | 170 kts | 123° |
| 2026-04-27 17:30 | 6.99448 | 158.03729 | 2487 ft | 169 kts | 112° |
| 2026-04-27 17:31 | 6.98974 | 158.04810 | 2444 ft | 166 kts | 104° |
| 2026-04-27 17:31 | 6.98675 | 158.05922 | 2397 ft | 164 kts | 96° |
| 2026-04-27 17:31 | 6.98565 | 158.07053 | 2339 ft | 159 kts | 88° |
| 2026-04-27 17:31 | 6.98561 | 158.08134 | 2204 ft | 152 kts | 86° |
| 2026-04-27 17:32 | 6.98565 | 158.09199 | 2073 ft | 151 kts | 86° |
| 2026-04-27 17:32 | 6.98553 | 158.11316 | 1763 ft | 152 kts | 86° |
| 2026-04-27 17:32 | 6.98548 | 158.12361 | 1567 ft | 144 kts | 86° |
| 2026-04-27 17:33 | 6.98543 | 158.13315 | 1403 ft | 134 kts | 86° |
| 2026-04-27 17:33 | 6.98543 | 158.14275 | 1202 ft | 140 kts | 86° |
| 2026-04-27 17:33 | 6.98537 | 158.15254 | 1000 ft | 139 kts | 86° |
| 2026-04-27 17:33 | 6.98527 | 158.16216 | 833 ft | 139 kts | 88° |
| 2026-04-27 17:34 | 6.98486 | 158.17197 | 633 ft | 139 kts | 88° |
| 2026-04-27 17:34 | 6.98501 | 158.18158 | 461 ft | 138 kts | 85° |
| 2026-04-27 17:34 | 6.98509 | 158.19128 | 245 ft | 141 kts | 86° |
| 2026-04-27 17:34 | 6.98507 | 158.20126 | 57 ft | 141 kts | 87° |
| 2026-04-27 17:35 | 6.98504 | 158.21028 | 28 ft | 110 kts | 89° |
| 2026-04-27 17:35 | 6.98516 | 158.21573 | 29 ft | 41 kts | 94° |
| 2026-04-27 17:35 | 6.98477 | 158.21806 | 18 ft | 21 kts | 117° |
| 2026-04-27 17:35 | 6.98492 | 158.21864 | 14 ft | 3 kts | 336° |
| 2026-04-27 17:36 | 6.98507 | 158.21822 | 17 ft | 10 kts | 274° |
| 2026-04-27 17:36 | 6.98508 | 158.21739 | 22 ft | 13 kts | 269° |
| 2026-04-27 17:36 | 6.98507 | 158.21632 | 27 ft | 17 kts | 271° |
| 2026-04-27 17:36 | 6.98507 | 158.21497 | 30 ft | 24 kts | 270° |
| 2026-04-27 17:37 | 6.98507 | 158.21335 | 31 ft | 20 kts | 269° |
| 2026-04-27 17:37 | 6.98506 | 158.21197 | 30 ft | 19 kts | 270° |
| 2026-04-27 17:37 | 6.98507 | 158.21063 | 29 ft | 18 kts | 270° |
| 2026-04-27 17:37 | 6.98510 | 158.20935 | 28 ft | 18 kts | 271° |
| 2026-04-27 17:38 | 6.98512 | 158.20808 | 27 ft | 17 kts | 270° |
| 2026-04-27 17:38 | 6.98513 | 158.20688 | 26 ft | 16 kts | 270° |
| 2026-04-27 17:38 | 6.98513 | 158.20572 | 26 ft | 15 kts | 270° |
| 2026-04-27 17:38 | 6.98514 | 158.20465 | 26 ft | 14 kts | 270° |
| 2026-04-27 17:39 | 6.98494 | 158.20375 | 27 ft | 13 kts | 220° |
| 2026-04-27 17:39 | 6.98407 | 158.20358 | 26 ft | 12 kts | 180° |
| 2026-04-27 17:39 | 6.98323 | 158.20360 | 26 ft | 11 kts | 179° |
| 2026-04-27 17:39 | 6.98256 | 158.20384 | 27 ft | 9 kts | 157° |
| 2026-04-27 17:40 | 6.98200 | 158.20393 | 28 ft | 6 kts | 177° |
| 2026-04-27 17:40 | 6.98182 | 158.20393 | 29 ft | 0 kts | 177° |